sensor_id;sensor_type;location;lat;lon;timestamp;P1;durP1;ratioP1;P2;durP2;ratioP2
31686;SDS011;18285;51.330;4.946;2024-02-23T00:20:39;2.97;;;2.45;;
31686;SDS011;18285;51.330;4.946;2024-02-23T00:44:49;3.50;;;2.40;;
31686;SDS011;18285;51.330;4.946;2024-02-23T01:09:00;2.65;;;2.20;;
31686;SDS011;18285;51.330;4.946;2024-02-23T01:33:11;2.15;;;1.95;;
31686;SDS011;18285;51.330;4.946;2024-02-23T01:57:21;2.95;;;2.00;;
31686;SDS011;18285;51.330;4.946;2024-02-23T02:21:33;2.17;;;1.60;;
31686;SDS011;18285;51.330;4.946;2024-02-23T02:45:45;3.08;;;1.67;;
31686;SDS011;18285;51.330;4.946;2024-02-23T03:09:55;3.75;;;2.10;;
31686;SDS011;18285;51.330;4.946;2024-02-23T03:34:06;5.55;;;1.98;;
31686;SDS011;18285;51.330;4.946;2024-02-23T03:58:17;3.40;;;1.60;;
31686;SDS011;18285;51.330;4.946;2024-02-23T04:22:28;4.85;;;1.83;;
31686;SDS011;18285;51.330;4.946;2024-02-23T04:46:39;3.20;;;1.40;;
31686;SDS011;18285;51.330;4.946;2024-02-23T05:10:53;1.92;;;1.40;;
31686;SDS011;18285;51.330;4.946;2024-02-23T05:35:03;3.03;;;1.48;;
31686;SDS011;18285;51.330;4.946;2024-02-23T06:23:28;6.68;;;1.65;;
31686;SDS011;18285;51.330;4.946;2024-02-23T06:47:39;14.40;;;3.25;;
31686;SDS011;18285;51.330;4.946;2024-02-23T07:11:50;13.65;;;3.55;;
31686;SDS011;18285;51.330;4.946;2024-02-23T07:36:01;10.60;;;3.05;;
31686;SDS011;18285;51.330;4.946;2024-02-23T08:00:12;9.10;;;2.92;;
31686;SDS011;18285;51.330;4.946;2024-02-23T08:48:33;7.10;;;2.10;;
31686;SDS011;18285;51.330;4.946;2024-02-23T09:12:44;5.03;;;2.45;;
31686;SDS011;18285;51.330;4.946;2024-02-23T09:36:55;4.20;;;2.10;;
31686;SDS011;18285;51.330;4.946;2024-02-23T10:01:06;3.03;;;1.70;;
31686;SDS011;18285;51.330;4.946;2024-02-23T10:25:17;4.13;;;1.63;;
31686;SDS011;18285;51.330;4.946;2024-02-23T10:49:27;3.53;;;1.43;;
31686;SDS011;18285;51.330;4.946;2024-02-23T11:13:38;4.57;;;1.38;;
31686;SDS011;18285;51.330;4.946;2024-02-23T11:37:53;2.47;;;1.40;;
31686;SDS011;18285;51.330;4.946;2024-02-23T12:02:08;2.25;;;1.27;;
31686;SDS011;18285;51.330;4.946;2024-02-23T12:26:19;2.87;;;1.00;;
31686;SDS011;18285;51.330;4.946;2024-02-23T13:14:41;6.83;;;1.37;;
31686;SDS011;18285;51.330;4.946;2024-02-23T13:38:52;2.07;;;1.00;;
31686;SDS011;18285;51.330;4.946;2024-02-23T14:03:02;1.90;;;1.00;;
31686;SDS011;18285;51.330;4.946;2024-02-23T14:27:13;2.17;;;0.80;;
31686;SDS011;18285;51.330;4.946;2024-02-23T14:51:24;2.27;;;1.00;;
31686;SDS011;18285;51.330;4.946;2024-02-23T15:15:35;1.17;;;0.93;;
31686;SDS011;18285;51.330;4.946;2024-02-23T15:39:49;3.90;;;0.98;;
31686;SDS011;18285;51.330;4.946;2024-02-23T16:04:00;4.17;;;1.50;;
31686;SDS011;18285;51.330;4.946;2024-02-23T16:28:10;13.27;;;4.97;;
31686;SDS011;18285;51.330;4.946;2024-02-23T16:52:21;9.47;;;3.20;;
31686;SDS011;18285;51.330;4.946;2024-02-23T17:16:31;15.63;;;4.03;;
31686;SDS011;18285;51.330;4.946;2024-02-23T17:40:42;13.20;;;4.57;;
31686;SDS011;18285;51.330;4.946;2024-02-23T18:04:55;11.77;;;4.13;;
31686;SDS011;18285;51.330;4.946;2024-02-23T18:29:07;6.30;;;3.10;;
31686;SDS011;18285;51.330;4.946;2024-02-23T18:53:17;5.57;;;2.43;;
31686;SDS011;18285;51.330;4.946;2024-02-23T19:17:29;4.93;;;2.03;;
31686;SDS011;18285;51.330;4.946;2024-02-23T19:41:43;12.07;;;5.15;;
31686;SDS011;18285;51.330;4.946;2024-02-23T20:05:55;12.30;;;5.88;;
31686;SDS011;18285;51.330;4.946;2024-02-23T20:30:06;8.70;;;4.57;;
31686;SDS011;18285;51.330;4.946;2024-02-23T20:54:17;5.07;;;3.60;;
31686;SDS011;18285;51.330;4.946;2024-02-23T21:18:27;7.82;;;3.33;;
31686;SDS011;18285;51.330;4.946;2024-02-23T21:42:38;7.93;;;2.75;;
31686;SDS011;18285;51.330;4.946;2024-02-23T22:06:49;3.92;;;2.42;;
31686;SDS011;18285;51.330;4.946;2024-02-23T22:31:00;2.72;;;1.80;;
31686;SDS011;18285;51.330;4.946;2024-02-23T22:55:11;3.78;;;1.70;;
31686;SDS011;18285;51.330;4.946;2024-02-23T23:19:21;2.85;;;1.30;;
31686;SDS011;18285;51.330;4.946;2024-02-23T23:43:32;4.55;;;1.70;;
